METAR Data
IDs: Format: Raw Decoded Include TAF

Data at: 2031 UTC 31 Jan 2023

KCRP 311951Z 35015KT 5SM BR OVC004 04/04 A3017 RMK AO2 PRESFR SLP216 T00440039